Maplewood, MN (55109)

8:49 AM CDT on August 29, 2015 (GMT -0500)
North St.Paul,Mn | | Change Station
CLOSE
Current Station
Personal Weather Station
Location: North St.Paul, MN
Elevation: 982 ft
Nearby Weather Stations

Elev 982 ft 45.03 °N, 93.01 °W | Updated 3 minutes ago

Overcast
Overcast
59.0 °F
Feels Like 59.0 °F
N
0.0
Wind Variable Wind from South
Gusts 7.0 mph

Today
High -- | Low -- °F
--% Chance of Precip.
Yesterday
High -- | Low -- °F
Precip. -- in
6:30 AM 7:55 PM
Full, 100% visible
Pressure 30.07 in
Visibility 8.0 miles
Clouds Overcast 800 ft
Dew Point 58 °F
Humidity 98%
Rainfall Not available.
Snow Depth Not available.
UV 0 out of 12
Pollen 8.30 out of 12
Air Quality Not available.
Flu Activity Not available.
METAR KSTP 291253Z 11003KT 8SM OVC008 14/13 A3008 RMK AO2 SLP183 T01390128
Pressure 30.07 in
Visibility 8.0 miles
Clouds Overcast 800 ft
Dew Point 58 °F
Humidity 98%
Rainfall Not available.
Snow Depth Not available.
UV 0 out of 12
Pollen 8.30 out of 12
Air Quality Not available.
Flu Activity Not available.
METAR KSTP 291253Z 11003KT 8SM OVC008 14/13 A3008 RMK AO2 SLP183 T01390128

10-Day Weather Forecast

×

Almanac

Astronomy

Aug. 29, 2015 Rise Set
Actual Time
Civil Twilight
Nautical Twilight
Astronomical Twilight
Moon
Length of Visible Light
Length of Day
Tomorrow will be .
, % of the Moon is Illuminated

Today's Extremes

State Highs State Lows

Community

WunderPhotos

Upload Photos

1,850,686 photos uploaded!

WunderBlogs® & News

Nearby

Air Quality

  Air Quality AQ Index Pollutant
Not available.

Snow Depth

Station Depth Elevation

Earthquake Activity

City Distance Mag. Time & Date
Minimum magnitude displayed is 2.5.

Coastal Water Temperatures

Place Temperature

Stations

Nearby Weather Stations

Station Location Temp. Windchill Dew Point Humidity Wind Precip. Elev Updated Type